createdAt,value
2019-02-18T00:01:01.821Z,52.63
2019-02-18T00:03:50.428Z,52.20
2019-02-18T00:06:41.329Z,53.80
2019-02-18T00:09:31.426Z,52.93
2019-02-18T00:12:21.732Z,55.40
2019-02-18T00:15:11.130Z,56.07
2019-02-18T00:17:59.927Z,55.07
2019-02-18T00:20:48.924Z,55.60
2019-02-18T00:23:37.927Z,54.53
2019-02-18T00:26:29.421Z,55.03
2019-02-18T00:29:19.298Z,52.10
2019-02-18T00:32:10.943Z,45.83
2019-02-18T00:35:02.496Z,46.00
2019-02-18T00:37:51.713Z,41.80
2019-02-18T00:40:41.002Z,41.70
2019-02-18T00:43:31.491Z,42.50
2019-02-18T00:46:21.156Z,42.87
2019-02-18T00:49:10.429Z,44.10
2019-02-18T00:52:00.134Z,41.13
2019-02-18T00:54:49.314Z,42.83
2019-02-18T00:57:37.750Z,41.23
2019-02-18T01:00:27.610Z,40.77
2019-02-18T01:03:16.796Z,42.77
2019-02-18T01:06:08.349Z,38.80
2019-02-18T01:08:57.687Z,39.50
2019-02-18T01:11:46.833Z,39.17
2019-02-18T01:14:37.222Z,39.03
2019-02-18T01:17:29.367Z,39.30
2019-02-18T01:20:19.169Z,39.23
2019-02-18T01:23:08.303Z,40.47
2019-02-18T01:25:57.315Z,40.40
2019-02-18T01:28:47.057Z,39.50
2019-02-18T01:31:36.237Z,41.90
2019-02-18T01:34:25.016Z,39.30
2019-02-18T01:37:13.456Z,38.90
2019-02-18T01:40:02.162Z,38.70
2019-02-18T01:42:50.725Z,39.33
2019-02-18T01:45:40.361Z,40.13
2019-02-18T01:48:30.372Z,40.33
2019-02-18T01:51:19.992Z,39.97
2019-02-18T01:54:09.296Z,40.90
2019-02-18T01:56:58.091Z,39.50
2019-02-18T01:59:47.505Z,41.43
2019-02-18T02:02:38.411Z,39.13
2019-02-18T02:05:28.712Z,40.70
2019-02-18T02:08:17.299Z,41.47
2019-02-18T02:11:06.793Z,40.33
2019-02-18T02:13:59.135Z,40.17
2019-02-18T02:16:47.705Z,38.60
2019-02-18T02:19:37.034Z,40.40
2019-02-18T02:22:26.352Z,40.40
2019-02-18T02:25:15.786Z,39.43
2019-02-18T02:28:04.841Z,40.27
2019-02-18T02:30:54.158Z,38.60
2019-02-18T02:33:43.176Z,40.90
2019-02-18T02:36:32.323Z,38.00
2019-02-18T02:39:22.679Z,41.87
2019-02-18T02:42:11.721Z,40.37
2019-02-18T02:44:59.998Z,39.50
2019-02-18T02:47:49.320Z,37.37
2019-02-18T02:50:41.274Z,39.17
2019-02-18T02:53:30.088Z,39.53
2019-02-18T02:56:21.677Z,41.10
2019-02-18T02:59:10.279Z,38.73
2019-02-18T03:02:00.502Z,40.97
2019-02-18T03:04:49.671Z,40.27
2019-02-18T03:07:38.682Z,40.50
2019-02-18T03:10:28.660Z,38.63
2019-02-18T03:13:17.414Z,37.83
2019-02-18T03:16:07.123Z,40.37
2019-02-18T03:18:57.836Z,41.00
2019-02-18T03:21:49.367Z,40.43
2019-02-18T03:24:40.259Z,38.27
2019-02-18T03:27:30.345Z,40.37
2019-02-18T03:31:03.698Z,37.60
2019-02-18T03:33:59.507Z,38.10
2019-02-18T03:36:47.988Z,39.57
2019-02-18T03:39:36.653Z,38.90
2019-02-18T03:42:25.604Z,37.50
2019-02-18T03:45:14.224Z,37.50
2019-02-18T03:48:03.275Z,38.80
2019-02-18T03:50:53.388Z,39.33
2019-02-18T03:53:42.640Z,36.77
2019-02-18T03:56:31.738Z,38.17
2019-02-18T03:59:21.015Z,40.60
2019-02-18T04:02:10.255Z,44.13
2019-02-18T04:04:59.453Z,44.10
2019-02-18T04:07:48.817Z,44.47
2019-02-18T04:10:38.360Z,46.50
2019-02-18T04:13:29.477Z,48.30
2019-02-18T04:16:18.488Z,46.30
2019-02-18T04:19:07.541Z,47.73
2019-02-18T04:21:56.489Z,48.10
2019-02-18T04:24:45.681Z,46.40
2019-02-18T04:27:35.190Z,46.83
2019-02-18T04:30:24.461Z,46.73
2019-02-18T04:33:13.522Z,47.53
2019-02-18T04:36:02.549Z,47.20
2019-02-18T04:38:54.096Z,45.60
2019-02-18T04:41:41.445Z,45.67
2019-02-18T04:44:31.011Z,41.07
2019-02-18T04:47:23.353Z,39.50
2019-02-18T04:50:12.603Z,37.60
2019-02-18T04:53:02.417Z,38.13
2019-02-18T04:55:51.458Z,35.93
2019-02-18T04:58:40.924Z,39.50
2019-02-18T05:01:30.081Z,37.47
2019-02-18T05:04:19.420Z,37.20
2019-02-18T05:07:08.989Z,37.73
2019-02-18T05:09:57.936Z,38.40
2019-02-18T05:12:47.357Z,38.00
2019-02-18T05:15:36.290Z,36.90
2019-02-18T05:18:25.283Z,39.13
2019-02-18T05:21:14.166Z,41.10
2019-02-18T05:24:03.560Z,36.83
2019-02-18T05:26:52.831Z,39.67
2019-02-18T05:29:42.301Z,38.73
2019-02-18T05:32:31.178Z,41.47
2019-02-18T05:35:20.172Z,40.10
2019-02-18T05:38:09.802Z,40.77
2019-02-18T05:40:58.803Z,39.80
2019-02-18T05:43:47.653Z,38.90
2019-02-18T05:46:36.150Z,40.83
2019-02-18T05:49:24.719Z,42.47
2019-02-18T05:52:14.181Z,43.27
2019-02-18T05:55:03.556Z,40.13
2019-02-18T05:57:53.138Z,38.83
2019-02-18T06:00:42.361Z,40.53
2019-02-18T06:03:31.623Z,42.90
2019-02-18T06:06:20.155Z,41.93
2019-02-18T06:09:09.127Z,40.87
2019-02-18T06:11:58.628Z,43.07
2019-02-18T06:14:47.399Z,43.20
2019-02-18T06:17:37.847Z,41.67
2019-02-18T06:20:30.234Z,41.20
2019-02-18T06:23:19.965Z,39.90
2019-02-18T06:26:08.985Z,41.33
2019-02-18T06:28:58.452Z,40.57
2019-02-18T06:31:48.100Z,40.93
2019-02-18T06:34:39.573Z,43.70
2019-02-18T06:37:29.691Z,43.00
2019-02-18T06:40:18.591Z,43.33
2019-02-18T06:43:11.778Z,44.17
2019-02-18T06:46:09.296Z,47.00
2019-02-18T06:49:20.566Z,49.27
2019-02-18T06:52:09.181Z,47.37
2019-02-18T06:54:58.833Z,44.90
2019-02-18T06:58:24.758Z,47.17
2019-02-18T07:01:38.296Z,49.03
2019-02-18T07:04:57.665Z,48.90
2019-02-18T07:08:14.408Z,48.10
2019-02-18T07:11:24.602Z,50.07
2019-02-18T07:14:13.118Z,48.40
2019-02-18T07:17:01.722Z,46.77
2019-02-18T07:19:50.683Z,48.27
2019-02-18T07:22:39.936Z,46.10
2019-02-18T07:25:30.954Z,48.73
2019-02-18T07:28:20.306Z,48.80
2019-02-18T07:31:10.184Z,49.37
2019-02-18T07:33:59.807Z,49.60
2019-02-18T07:36:49.289Z,51.67
2019-02-18T07:39:38.334Z,47.73
2019-02-18T07:42:28.526Z,50.07
2019-02-18T07:45:17.613Z,50.60
2019-02-18T07:48:06.847Z,49.80
2019-02-18T07:50:55.720Z,50.80
2019-02-18T07:53:44.382Z,55.93
2019-02-18T07:56:33.655Z,53.80
2019-02-18T07:59:22.599Z,52.13
2019-02-18T08:02:11.314Z,52.33
2019-02-18T08:05:02.623Z,54.33
2019-02-18T08:07:51.076Z,55.10
2019-02-18T08:10:40.308Z,55.60
2019-02-18T08:13:30.635Z,55.20
2019-02-18T08:16:19.476Z,57.10
2019-02-18T08:19:08.680Z,55.13
2019-02-18T08:21:58.007Z,58.47
2019-02-18T08:24:47.449Z,55.70
2019-02-18T08:27:35.968Z,56.37
2019-02-18T08:30:25.032Z,57.00
2019-02-18T08:33:14.127Z,60.17
2019-02-18T08:36:03.470Z,61.17
2019-02-18T08:38:52.632Z,60.07
2019-02-18T08:41:41.694Z,60.53
2019-02-18T08:44:31.489Z,63.60
2019-02-18T08:47:21.439Z,63.77
2019-02-18T08:50:11.540Z,63.17
2019-02-18T08:53:02.507Z,61.37
2019-02-18T08:55:51.411Z,62.10
2019-02-18T08:58:40.567Z,63.13
2019-02-18T09:01:29.683Z,65.50
2019-02-18T09:04:18.726Z,63.07
2019-02-18T09:07:07.714Z,63.30
2019-02-18T09:09:56.771Z,65.83
2019-02-18T09:12:54.501Z,64.10
2019-02-18T09:15:43.555Z,62.60
2019-02-18T09:18:32.690Z,61.53
2019-02-18T09:21:21.893Z,61.43
2019-02-18T09:24:19.092Z,61.00
2019-02-18T09:27:08.054Z,60.30
2019-02-18T09:29:56.717Z,61.17
2019-02-18T09:32:46.049Z,66.07
2019-02-18T09:35:35.139Z,67.20
2019-02-18T09:38:25.517Z,65.30
2019-02-18T09:41:14.242Z,63.87
2019-02-18T09:44:03.327Z,67.07
2019-02-18T09:46:52.481Z,66.50
2019-02-18T09:49:41.621Z,63.73
2019-02-18T09:52:31.377Z,64.63
2019-02-18T09:55:20.323Z,64.30
2019-02-18T09:58:09.673Z,64.27
2019-02-18T10:00:58.682Z,63.17
2019-02-18T10:03:48.141Z,62.13
2019-02-18T10:06:37.099Z,62.57
2019-02-18T10:09:26.939Z,64.07
2019-02-18T10:12:18.399Z,60.97
2019-02-18T10:15:09.202Z,61.40
2019-02-18T10:17:57.909Z,61.57
2019-02-18T10:20:47.202Z,60.60
2019-02-18T10:23:36.416Z,64.10
2019-02-18T10:26:25.478Z,61.47
2019-02-18T10:29:14.472Z,60.80
2019-02-18T10:32:03.792Z,61.27
2019-02-18T10:34:53.776Z,61.70
2019-02-18T10:37:43.507Z,60.60
2019-02-18T10:40:32.714Z,60.23
2019-02-18T10:43:30.159Z,58.33
2019-02-18T10:46:13.214Z,61.10
2019-02-18T10:49:02.818Z,59.43
2019-02-18T10:51:51.805Z,60.90
2019-02-18T10:54:41.232Z,63.93
2019-02-18T10:57:31.799Z,62.27
2019-02-18T11:00:21.171Z,58.97
2019-02-18T11:03:10.516Z,59.80
2019-02-18T11:06:00.353Z,60.47
2019-02-18T11:08:49.735Z,60.43
2019-02-18T11:11:38.844Z,61.07
2019-02-18T11:14:29.544Z,58.53
2019-02-18T11:17:19.174Z,60.77
2019-02-18T11:20:09.134Z,58.80
2019-02-18T11:22:58.389Z,56.90
2019-02-18T11:25:47.667Z,56.67
2019-02-18T11:28:36.883Z,57.40
2019-02-18T11:31:25.532Z,55.33
2019-02-18T11:34:14.473Z,56.37
2019-02-18T11:37:03.075Z,55.47
2019-02-18T11:39:52.362Z,54.37
2019-02-18T11:42:41.835Z,55.67
2019-02-18T11:45:31.441Z,55.50
2019-02-18T11:48:20.684Z,59.63
2019-02-18T11:51:09.667Z,56.87
2019-02-18T11:53:58.961Z,55.93
2019-02-18T11:56:47.630Z,58.20
2019-02-18T11:59:36.607Z,55.43
2019-02-18T12:02:25.721Z,53.47
2019-02-18T12:05:15.151Z,53.20
2019-02-18T12:08:04.264Z,56.37
2019-02-18T12:10:53.348Z,55.50
2019-02-18T12:13:42.579Z,51.97
2019-02-18T12:16:31.911Z,55.87
2019-02-18T12:19:21.695Z,52.80
2019-02-18T12:22:12.061Z,56.90
2019-02-18T12:25:00.905Z,53.50
2019-02-18T12:27:50.111Z,55.77
2019-02-18T12:30:40.104Z,54.03
2019-02-18T12:33:29.784Z,53.50
2019-02-18T12:36:20.276Z,52.70
2019-02-18T12:39:13.394Z,48.77
2019-02-18T12:42:02.384Z,51.20
2019-02-18T12:44:50.974Z,51.57
2019-02-18T12:47:40.138Z,50.10
2019-02-18T12:50:31.967Z,51.20
2019-02-18T12:53:21.093Z,51.60
2019-02-18T12:56:10.619Z,51.43
2019-02-18T12:59:00.628Z,52.77
2019-02-18T13:01:50.041Z,53.77
2019-02-18T13:04:38.729Z,53.63
2019-02-18T13:07:28.860Z,56.67
2019-02-18T13:10:20.963Z,55.60
2019-02-18T13:13:09.966Z,55.30
2019-02-18T13:15:58.800Z,54.83
2019-02-18T13:18:47.487Z,53.30
2019-02-18T13:21:36.748Z,55.57
2019-02-18T13:24:25.839Z,54.80
2019-02-18T13:27:14.672Z,52.57
2019-02-18T13:30:03.644Z,53.80
2019-02-18T13:32:52.216Z,54.67
2019-02-18T13:35:40.925Z,52.20
2019-02-18T13:38:31.987Z,53.30
2019-02-18T13:41:23.440Z,51.80
2019-02-18T13:44:12.068Z,50.07
2019-02-18T13:47:01.279Z,49.47
2019-02-18T13:49:50.768Z,50.53
2019-02-18T13:52:39.816Z,50.03
2019-02-18T13:55:30.863Z,49.20
2019-02-18T13:58:20.021Z,49.60
2019-02-18T14:01:09.359Z,48.07
2019-02-18T14:03:58.732Z,44.87
2019-02-18T14:06:47.817Z,46.57
2019-02-18T14:09:37.007Z,46.37
2019-02-18T14:12:26.222Z,50.53
2019-02-18T14:15:16.645Z,46.03
2019-02-18T14:18:05.727Z,47.73
2019-02-18T14:21:17.746Z,47.90
2019-02-18T14:24:06.420Z,46.10
2019-02-18T14:26:55.830Z,45.83
2019-02-18T14:29:45.359Z,44.83
2019-02-18T14:32:34.834Z,45.03
2019-02-18T14:35:24.297Z,42.30
2019-02-18T14:38:13.997Z,44.80
2019-02-18T14:41:03.445Z,44.67
2019-02-18T14:43:52.715Z,45.60
2019-02-18T14:46:41.895Z,42.70
2019-02-18T14:49:38.109Z,44.73
2019-02-18T14:52:29.351Z,43.73
2019-02-18T14:55:18.605Z,43.63
2019-02-18T14:58:08.518Z,44.13
2019-02-18T15:00:57.547Z,45.27
2019-02-18T15:03:46.465Z,47.07
2019-02-18T15:06:36.082Z,46.80
2019-02-18T15:09:26.439Z,46.40
2019-02-18T15:12:15.784Z,46.17
2019-02-18T15:15:05.716Z,45.30
2019-02-18T15:17:55.065Z,45.90
2019-02-18T15:20:44.760Z,47.67
2019-02-18T15:23:33.872Z,48.47
2019-02-18T15:26:24.491Z,46.57
2019-02-18T15:29:13.889Z,46.73
2019-02-18T15:32:03.081Z,50.60
2019-02-18T15:34:52.602Z,47.23
2019-02-18T15:37:41.854Z,48.17
2019-02-18T15:40:32.567Z,48.70
2019-02-18T15:43:21.924Z,48.33
2019-02-18T15:46:11.341Z,48.27
2019-02-18T15:49:00.638Z,49.83
2019-02-18T15:51:49.644Z,50.50
2019-02-18T15:54:39.339Z,49.27
2019-02-18T15:57:28.677Z,47.00
2019-02-18T16:00:20.297Z,49.20
2019-02-18T16:03:09.683Z,48.23
2019-02-18T16:05:58.556Z,46.80
2019-02-18T16:08:50.700Z,44.83
2019-02-18T16:11:39.840Z,42.80
2019-02-18T16:14:31.069Z,43.47
2019-02-18T16:17:20.282Z,41.70
2019-02-18T16:20:12.745Z,44.47
2019-02-18T16:23:04.330Z,43.60
2019-02-18T16:25:53.788Z,43.53
2019-02-18T16:28:42.835Z,42.70
2019-02-18T16:31:32.218Z,42.77
2019-02-18T16:34:22.039Z,41.13
2019-02-18T16:37:11.549Z,41.20
2019-02-18T16:40:01.359Z,41.37
2019-02-18T16:42:59.106Z,41.27
2019-02-18T16:45:46.563Z,42.97
2019-02-18T16:48:35.346Z,41.23
2019-02-18T16:51:24.645Z,41.43
2019-02-18T16:54:13.833Z,42.37
2019-02-18T16:57:03.395Z,44.30
2019-02-18T16:59:52.673Z,43.13
2019-02-18T17:02:41.678Z,41.67
2019-02-18T17:05:31.010Z,41.60
2019-02-18T17:08:19.737Z,40.70
2019-02-18T17:11:09.100Z,46.33
2019-02-18T17:13:59.379Z,49.23
2019-02-18T17:16:48.791Z,47.37
2019-02-18T17:19:37.836Z,48.50
2019-02-18T17:22:26.925Z,47.63
2019-02-18T17:25:16.749Z,47.93
2019-02-18T17:28:06.018Z,45.33
2019-02-18T17:30:54.991Z,45.83
2019-02-18T17:33:47.030Z,45.27
2019-02-18T17:36:36.957Z,41.77
2019-02-18T17:39:29.538Z,42.33
2019-02-18T17:42:20.893Z,43.57
2019-02-18T17:45:12.046Z,43.83
2019-02-18T17:48:01.475Z,43.07
2019-02-18T17:50:51.873Z,43.03
2019-02-18T17:53:44.493Z,45.10
2019-02-18T17:56:37.640Z,41.97
2019-02-18T17:59:29.331Z,41.83
2019-02-18T18:02:19.482Z,41.10
2019-02-18T18:05:09.276Z,40.97
2019-02-18T18:08:03.158Z,42.00
2019-02-18T18:10:54.420Z,39.80
2019-02-18T18:13:43.669Z,38.73
2019-02-18T18:16:37.478Z,38.43
2019-02-18T18:19:33.618Z,36.70
2019-02-18T18:22:24.051Z,33.90
2019-02-18T18:25:12.826Z,34.20
2019-02-18T18:28:03.977Z,33.47
2019-02-18T18:30:54.749Z,33.37
2019-02-18T18:33:44.304Z,32.17
2019-02-18T18:36:35.809Z,32.73
2019-02-18T18:39:28.677Z,46.40
2019-02-18T18:42:18.609Z,51.40
2019-02-18T18:45:09.560Z,48.03
2019-02-18T18:48:01.038Z,42.93
2019-02-18T18:50:51.669Z,39.70
2019-02-18T18:53:40.446Z,35.73
2019-02-18T18:56:33.801Z,34.37
2019-02-18T18:59:30.337Z,32.90
2019-02-18T19:02:22.173Z,31.30
2019-02-18T19:05:10.538Z,32.77
2019-02-18T19:08:03.882Z,34.33
2019-02-18T19:10:53.203Z,35.00
2019-02-18T19:13:42.797Z,33.90
2019-02-18T19:16:31.855Z,35.90
2019-02-18T19:19:23.461Z,35.03
2019-02-18T19:22:12.552Z,38.23
2019-02-18T19:25:01.206Z,35.47
2019-02-18T19:27:50.356Z,36.63
2019-02-18T19:30:40.272Z,35.47
2019-02-18T19:33:31.463Z,37.50
2019-02-18T19:36:23.216Z,39.47
2019-02-18T19:39:12.486Z,39.77
2019-02-18T19:42:02.392Z,39.30
2019-02-18T19:44:53.481Z,38.20
2019-02-18T19:47:44.985Z,37.23
2019-02-18T19:50:34.190Z,35.70
2019-02-18T19:53:29.851Z,37.60
2019-02-18T19:56:22.766Z,37.57
2019-02-18T19:59:13.031Z,35.63
2019-02-18T20:02:02.053Z,37.03
2019-02-18T20:04:52.926Z,36.57
2019-02-18T20:07:42.008Z,38.70
2019-02-18T20:10:36.523Z,36.80
2019-02-18T20:13:30.037Z,35.80
2019-02-18T20:16:20.994Z,35.97
2019-02-18T20:19:15.349Z,35.03
2019-02-18T20:22:06.131Z,35.53
2019-02-18T20:24:57.880Z,34.73
2019-02-18T20:27:47.558Z,33.10
2019-02-18T20:30:39.981Z,30.23
2019-02-18T20:33:34.128Z,28.50
2019-02-18T20:36:23.084Z,27.97
2019-02-18T20:39:12.033Z,28.27
2019-02-18T20:42:01.119Z,27.70
2019-02-18T20:44:50.629Z,28.63
2019-02-18T20:47:40.251Z,29.97
2019-02-18T20:50:31.746Z,30.77
2019-02-18T20:53:21.471Z,30.03
2019-02-18T20:56:10.910Z,29.50
2019-02-18T20:59:00.913Z,30.00
2019-02-18T21:01:50.822Z,29.50
2019-02-18T21:04:42.737Z,29.47
2019-02-18T21:07:32.143Z,30.73
2019-02-18T21:10:24.248Z,26.50
2019-02-18T21:13:13.762Z,26.87
2019-02-18T21:16:03.202Z,28.93
2019-02-18T21:18:53.394Z,30.40
2019-02-18T21:21:42.570Z,28.53
2019-02-18T21:24:31.844Z,29.43
2019-02-18T21:27:22.831Z,28.80
2019-02-18T21:30:18.709Z,27.70
2019-02-18T21:33:11.489Z,25.93
2019-02-18T21:36:00.525Z,28.30
2019-02-18T21:38:51.830Z,28.10
2019-02-18T21:41:40.395Z,29.60
2019-02-18T21:44:33.276Z,29.70
2019-02-18T21:47:24.778Z,28.77
2019-02-18T21:50:21.999Z,32.80
2019-02-18T21:53:11.822Z,30.10
2019-02-18T21:56:02.724Z,30.50
2019-02-18T21:58:52.544Z,30.10
2019-02-18T22:01:42.003Z,28.90
2019-02-18T22:04:31.852Z,29.83
2019-02-18T22:07:21.604Z,30.77
2019-02-18T22:10:11.664Z,30.87
2019-02-18T22:13:00.740Z,29.93
2019-02-18T22:15:50.166Z,29.77
2019-02-18T22:18:41.846Z,31.27
2019-02-18T22:21:32.905Z,32.40
2019-02-18T22:24:22.053Z,31.37
2019-02-18T22:27:11.759Z,32.40
2019-02-18T22:30:02.361Z,32.87
2019-02-18T22:32:51.403Z,34.20
2019-02-18T22:35:40.572Z,32.50
2019-02-18T22:38:31.769Z,33.17
2019-02-18T22:41:25.163Z,33.53
2019-02-18T22:44:14.233Z,32.00
2019-02-18T22:47:03.656Z,33.10
2019-02-18T22:49:52.705Z,33.30
2019-02-18T22:52:41.927Z,31.87
2019-02-18T22:55:33.389Z,31.47
2019-02-18T22:58:25.052Z,31.90
2019-02-18T23:01:14.448Z,32.23
2019-02-18T23:04:06.579Z,32.50
2019-02-18T23:06:55.607Z,33.10
2019-02-18T23:09:44.106Z,34.13
2019-02-18T23:12:32.871Z,33.70
2019-02-18T23:15:21.937Z,33.50
2019-02-18T23:18:18.122Z,33.87
2019-02-18T23:21:07.539Z,33.50
2019-02-18T23:23:56.840Z,33.10
2019-02-18T23:26:45.338Z,33.53
2019-02-18T23:29:34.250Z,32.47
2019-02-18T23:32:23.356Z,32.90
2019-02-18T23:35:11.912Z,33.80
2019-02-18T23:38:00.832Z,35.33
2019-02-18T23:40:49.852Z,37.03
2019-02-18T23:43:39.144Z,36.17
2019-02-18T23:46:27.574Z,35.63
2019-02-18T23:49:17.166Z,37.00
2019-02-18T23:52:05.801Z,37.10
2019-02-18T23:54:55.252Z,35.70
2019-02-18T23:57:43.850Z,37.50
